sensor_id;sensor_type;location;lat;lon;timestamp;pressure;altitude;pressure_sealevel;temperature
28803;BMP280;15949;55.656;37.422;2022-11-15T00:00:00;100058.91;;;-0.99
28803;BMP280;15949;55.656;37.422;2022-11-15T00:05:06;100057.25;;;-1.03
28803;BMP280;15949;55.656;37.422;2022-11-15T00:10:12;100058.06;;;-0.90
28803;BMP280;15949;55.656;37.422;2022-11-15T00:15:17;100051.31;;;-0.92
28803;BMP280;15949;55.656;37.422;2022-11-15T00:20:23;100046.06;;;-0.92
28803;BMP280;15949;55.656;37.422;2022-11-15T00:25:28;100050.00;;;-0.98
28803;BMP280;15949;55.656;37.422;2022-11-15T00:30:34;100036.59;;;-0.96
28803;BMP280;15949;55.656;37.422;2022-11-15T00:35:40;100023.84;;;-0.98
28803;BMP280;15949;55.656;37.422;2022-11-15T00:40:45;100030.34;;;-1.28
28803;BMP280;15949;55.656;37.422;2022-11-15T00:45:51;100013.16;;;-1.17
28803;BMP280;15949;55.656;37.422;2022-11-15T00:50:57;100017.28;;;-1.16
28803;BMP280;15949;55.656;37.422;2022-11-15T00:56:02;100016.84;;;-1.18
28803;BMP280;15949;55.656;37.422;2022-11-15T01:01:10;100018.13;;;-1.37
28803;BMP280;15949;55.656;37.422;2022-11-15T01:06:16;100005.50;;;-1.10
28803;BMP280;15949;55.656;37.422;2022-11-15T01:11:21;100007.72;;;-1.24
28803;BMP280;15949;55.656;37.422;2022-11-15T01:16:27;100003.66;;;-1.34
28803;BMP280;15949;55.656;37.422;2022-11-15T01:21:33;99990.25;;;-1.20
28803;BMP280;15949;55.656;37.422;2022-11-15T01:26:38;99992.34;;;-1.26
28803;BMP280;15949;55.656;37.422;2022-11-15T01:31:44;99988.72;;;-1.46
28803;BMP280;15949;55.656;37.422;2022-11-15T01:36:49;99970.97;;;-1.40
28803;BMP280;15949;55.656;37.422;2022-11-15T01:41:55;99979.38;;;-1.35
28803;BMP280;15949;55.656;37.422;2022-11-15T01:47:03;99983.06;;;-1.36
28803;BMP280;15949;55.656;37.422;2022-11-15T01:52:13;99986.06;;;-1.58
28803;BMP280;15949;55.656;37.422;2022-11-15T01:57:20;99978.44;;;-1.63
28803;BMP280;15949;55.656;37.422;2022-11-15T02:02:26;99980.31;;;-1.51
28803;BMP280;15949;55.656;37.422;2022-11-15T02:07:32;99979.94;;;-1.62
28803;BMP280;15949;55.656;37.422;2022-11-15T02:12:40;99979.53;;;-1.52
28803;BMP280;15949;55.656;37.422;2022-11-15T02:18:01;99978.72;;;-1.77
28803;BMP280;15949;55.656;37.422;2022-11-15T02:28:48;99957.31;;;-1.58
28803;BMP280;15949;55.656;37.422;2022-11-15T02:39:23;99957.00;;;-1.57
28803;BMP280;15949;55.656;37.422;2022-11-15T02:44:37;99958.84;;;-1.69
28803;BMP280;15949;55.656;37.422;2022-11-15T02:49:47;99960.78;;;-1.79
28803;BMP280;15949;55.656;37.422;2022-11-15T02:54:54;99950.28;;;-1.91
28803;BMP280;15949;55.656;37.422;2022-11-15T03:00:09;99942.91;;;-1.77
28803;BMP280;15949;55.656;37.422;2022-11-15T03:05:41;99938.78;;;-1.78
28803;BMP280;15949;55.656;37.422;2022-11-15T03:11:13;99933.72;;;-1.95
28803;BMP280;15949;55.656;37.422;2022-11-15T03:16:37;99939.16;;;-2.00
28803;BMP280;15949;55.656;37.422;2022-11-15T03:21:44;99930.09;;;-2.03
28803;BMP280;15949;55.656;37.422;2022-11-15T03:26:52;99918.47;;;-2.05
28803;BMP280;15949;55.656;37.422;2022-11-15T03:32:03;99915.59;;;-2.12
28803;BMP280;15949;55.656;37.422;2022-11-15T03:37:14;99921.88;;;-2.26
28803;BMP280;15949;55.656;37.422;2022-11-15T03:42:28;99924.13;;;-2.03
28803;BMP280;15949;55.656;37.422;2022-11-15T03:47:41;99919.13;;;-1.96
28803;BMP280;15949;55.656;37.422;2022-11-15T03:52:50;99922.19;;;-1.94
28803;BMP280;15949;55.656;37.422;2022-11-15T03:57:58;99914.72;;;-1.83
28803;BMP280;15949;55.656;37.422;2022-11-15T04:03:04;99899.50;;;-1.81
28803;BMP280;15949;55.656;37.422;2022-11-15T04:08:10;99904.94;;;-1.86
28803;BMP280;15949;55.656;37.422;2022-11-15T04:13:15;99910.75;;;-2.02
28803;BMP280;15949;55.656;37.422;2022-11-15T04:18:21;99905.59;;;-1.89
28803;BMP280;15949;55.656;37.422;2022-11-15T04:23:27;99904.50;;;-1.88
28803;BMP280;15949;55.656;37.422;2022-11-15T04:28:51;99891.13;;;-1.87
28803;BMP280;15949;55.656;37.422;2022-11-15T04:34:15;99901.06;;;-2.01
28803;BMP280;15949;55.656;37.422;2022-11-15T04:39:20;99887.19;;;-1.93
28803;BMP280;15949;55.656;37.422;2022-11-15T04:44:26;99882.84;;;-1.89
28803;BMP280;15949;55.656;37.422;2022-11-15T04:49:31;99875.13;;;-1.73
28803;BMP280;15949;55.656;37.422;2022-11-15T04:54:37;99874.53;;;-2.03
28803;BMP280;15949;55.656;37.422;2022-11-15T04:59:43;99879.56;;;-1.98
28803;BMP280;15949;55.656;37.422;2022-11-15T05:04:48;99872.41;;;-1.89
28803;BMP280;15949;55.656;37.422;2022-11-15T05:09:54;99864.75;;;-1.94
28803;BMP280;15949;55.656;37.422;2022-11-15T05:14:59;99868.69;;;-1.88
28803;BMP280;15949;55.656;37.422;2022-11-15T05:20:05;99862.41;;;-1.74
28803;BMP280;15949;55.656;37.422;2022-11-15T05:25:11;99860.88;;;-1.76
28803;BMP280;15949;55.656;37.422;2022-11-15T05:30:17;99861.00;;;-1.72
28803;BMP280;15949;55.656;37.422;2022-11-15T05:35:38;99865.44;;;-1.72
28803;BMP280;15949;55.656;37.422;2022-11-15T05:40:45;99853.72;;;-1.66
28803;BMP280;15949;55.656;37.422;2022-11-15T05:45:50;99861.31;;;-1.49
28803;BMP280;15949;55.656;37.422;2022-11-15T05:50:56;99852.06;;;-1.46
28803;BMP280;15949;55.656;37.422;2022-11-15T05:56:03;99840.66;;;-1.42
28803;BMP280;15949;55.656;37.422;2022-11-15T06:01:09;99840.88;;;-1.35
28803;BMP280;15949;55.656;37.422;2022-11-15T06:06:14;99835.00;;;-1.44
28803;BMP280;15949;55.656;37.422;2022-11-15T06:11:20;99832.34;;;-1.31
28803;BMP280;15949;55.656;37.422;2022-11-15T06:16:25;99835.00;;;-1.44
28803;BMP280;15949;55.656;37.422;2022-11-15T06:21:31;99829.53;;;-1.39
28803;BMP280;15949;55.656;37.422;2022-11-15T06:26:37;99824.94;;;-1.29
28803;BMP280;15949;55.656;37.422;2022-11-15T06:31:42;99826.69;;;-1.21
28803;BMP280;15949;55.656;37.422;2022-11-15T06:36:48;99814.50;;;-1.29
28803;BMP280;15949;55.656;37.422;2022-11-15T06:41:53;99810.63;;;-1.07
28803;BMP280;15949;55.656;37.422;2022-11-15T06:46:59;99803.59;;;-1.19
28803;BMP280;15949;55.656;37.422;2022-11-15T06:52:05;99799.69;;;-1.25
28803;BMP280;15949;55.656;37.422;2022-11-15T06:57:10;99792.66;;;-1.09
28803;BMP280;15949;55.656;37.422;2022-11-15T07:02:16;99796.16;;;-1.05
28803;BMP280;15949;55.656;37.422;2022-11-15T07:07:22;99784.78;;;-0.97
28803;BMP280;15949;55.656;37.422;2022-11-15T07:12:27;99786.00;;;-0.94
28803;BMP280;15949;55.656;37.422;2022-11-15T07:17:33;99786.94;;;-0.86
28803;BMP280;15949;55.656;37.422;2022-11-15T07:22:39;99783.44;;;-0.78
28803;BMP280;15949;55.656;37.422;2022-11-15T07:27:54;99775.41;;;-0.85
28803;BMP280;15949;55.656;37.422;2022-11-15T07:33:00;99770.06;;;-0.89
28803;BMP280;15949;55.656;37.422;2022-11-15T07:38:06;99765.00;;;-0.82
28803;BMP280;15949;55.656;37.422;2022-11-15T07:43:12;99755.41;;;-0.78
28803;BMP280;15949;55.656;37.422;2022-11-15T07:48:18;99749.25;;;-0.85
28803;BMP280;15949;55.656;37.422;2022-11-15T07:53:23;99743.34;;;-0.82
28803;BMP280;15949;55.656;37.422;2022-11-15T07:58:29;99734.72;;;-0.67
28803;BMP280;15949;55.656;37.422;2022-11-15T08:03:35;99724.63;;;-0.53
28803;BMP280;15949;55.656;37.422;2022-11-15T08:08:40;99731.97;;;-0.42
28803;BMP280;15949;55.656;37.422;2022-11-15T08:13:46;99733.41;;;-0.29
28803;BMP280;15949;55.656;37.422;2022-11-15T08:18:52;99730.38;;;-0.31
28803;BMP280;15949;55.656;37.422;2022-11-15T08:23:57;99720.06;;;-0.24
28803;BMP280;15949;55.656;37.422;2022-11-15T08:29:03;99712.53;;;-0.25
28803;BMP280;15949;55.656;37.422;2022-11-15T08:34:08;99713.50;;;-0.18
28803;BMP280;15949;55.656;37.422;2022-11-15T08:39:14;99703.19;;;-0.11
28803;BMP280;15949;55.656;37.422;2022-11-15T08:44:19;99704.78;;;-0.06
28803;BMP280;15949;55.656;37.422;2022-11-15T08:49:25;99694.63;;;-0.08
28803;BMP280;15949;55.656;37.422;2022-11-15T08:54:31;99695.50;;;-0.19
28803;BMP280;15949;55.656;37.422;2022-11-15T08:59:37;99706.13;;;-0.28
28803;BMP280;15949;55.656;37.422;2022-11-15T09:04:43;99700.66;;;-0.39
28803;BMP280;15949;55.656;37.422;2022-11-15T09:09:49;99689.91;;;-0.34
28803;BMP280;15949;55.656;37.422;2022-11-15T09:14:55;99681.88;;;-0.25
28803;BMP280;15949;55.656;37.422;2022-11-15T09:20:00;99675.84;;;-0.29
28803;BMP280;15949;55.656;37.422;2022-11-15T09:25:06;99678.03;;;-0.31
28803;BMP280;15949;55.656;37.422;2022-11-15T09:30:12;99665.63;;;-0.34
28803;BMP280;15949;55.656;37.422;2022-11-15T09:35:18;99661.38;;;-0.23
28803;BMP280;15949;55.656;37.422;2022-11-15T09:40:24;99657.41;;;-0.17
28803;BMP280;15949;55.656;37.422;2022-11-15T09:51:18;99647.44;;;-0.11
28803;BMP280;15949;55.656;37.422;2022-11-15T09:56:29;99643.69;;;-0.10
28803;BMP280;15949;55.656;37.422;2022-11-15T10:12:15;99637.22;;;-0.16
28803;BMP280;15949;55.656;37.422;2022-11-15T10:22:44;99618.72;;;-0.23
28803;BMP280;15949;55.656;37.422;2022-11-15T10:44:09;99586.00;;;-0.33
28803;BMP280;15949;55.656;37.422;2022-11-15T10:49:21;99566.88;;;-0.37
28803;BMP280;15949;55.656;37.422;2022-11-15T10:54:34;99562.06;;;-0.35
28803;BMP280;15949;55.656;37.422;2022-11-15T11:10:31;99556.41;;;-0.53
28803;BMP280;15949;55.656;37.422;2022-11-15T11:15:39;99550.56;;;-0.46
28803;BMP280;15949;55.656;37.422;2022-11-15T11:20:51;99545.50;;;-0.39
28803;BMP280;15949;55.656;37.422;2022-11-15T11:47:23;99532.53;;;-0.52
28803;BMP280;15949;55.656;37.422;2022-11-15T11:52:34;99531.19;;;-0.61
28803;BMP280;15949;55.656;37.422;2022-11-15T12:13:57;99517.59;;;-1.02
28803;BMP280;15949;55.656;37.422;2022-11-15T12:19:04;99503.56;;;-1.10
28803;BMP280;15949;55.656;37.422;2022-11-15T12:29:31;99495.88;;;-1.22
28803;BMP280;15949;55.656;37.422;2022-11-15T12:34:46;99485.97;;;-1.29
28803;BMP280;15949;55.656;37.422;2022-11-15T12:50:57;99456.97;;;-1.40
28803;BMP280;15949;55.656;37.422;2022-11-15T13:11:51;99434.81;;;-1.78
28803;BMP280;15949;55.656;37.422;2022-11-15T13:16:58;99424.38;;;-1.78
28803;BMP280;15949;55.656;37.422;2022-11-15T13:22:09;99422.66;;;-1.86
28803;BMP280;15949;55.656;37.422;2022-11-15T13:27:40;99424.25;;;-1.97
28803;BMP280;15949;55.656;37.422;2022-11-15T13:32:46;99417.91;;;-1.96
28803;BMP280;15949;55.656;37.422;2022-11-15T13:37:53;99403.22;;;-1.88
28803;BMP280;15949;55.656;37.422;2022-11-15T13:42:59;99407.00;;;-1.86
28803;BMP280;15949;55.656;37.422;2022-11-15T13:48:19;99399.31;;;-1.94
28803;BMP280;15949;55.656;37.422;2022-11-15T13:53:24;99391.81;;;-1.96
28803;BMP280;15949;55.656;37.422;2022-11-15T13:58:30;99385.19;;;-1.93
28803;BMP280;15949;55.656;37.422;2022-11-15T14:03:47;99383.50;;;-1.86
28803;BMP280;15949;55.656;37.422;2022-11-15T14:14:45;99367.59;;;-1.81
28803;BMP280;15949;55.656;37.422;2022-11-15T14:19:51;99366.91;;;-1.78
28803;BMP280;15949;55.656;37.422;2022-11-15T14:25:17;99354.88;;;-1.82
28803;BMP280;15949;55.656;37.422;2022-11-15T14:30:24;99365.41;;;-1.79
28803;BMP280;15949;55.656;37.422;2022-11-15T14:35:29;99353.69;;;-1.85
28803;BMP280;15949;55.656;37.422;2022-11-15T14:40:35;99345.88;;;-1.85
28803;BMP280;15949;55.656;37.422;2022-11-15T14:45:41;99339.88;;;-1.85
28803;BMP280;15949;55.656;37.422;2022-11-15T14:50:46;99329.44;;;-1.85
28803;BMP280;15949;55.656;37.422;2022-11-15T14:55:52;99326.31;;;-1.91
28803;BMP280;15949;55.656;37.422;2022-11-15T15:00:58;99322.03;;;-1.83
28803;BMP280;15949;55.656;37.422;2022-11-15T15:06:04;99322.19;;;-1.92
28803;BMP280;15949;55.656;37.422;2022-11-15T15:11:17;99317.97;;;-1.97
28803;BMP280;15949;55.656;37.422;2022-11-15T15:16:24;99314.88;;;-2.02
28803;BMP280;15949;55.656;37.422;2022-11-15T15:21:29;99312.75;;;-1.97
28803;BMP280;15949;55.656;37.422;2022-11-15T15:26:36;99307.91;;;-1.98
28803;BMP280;15949;55.656;37.422;2022-11-15T15:31:43;99301.31;;;-1.92
28803;BMP280;15949;55.656;37.422;2022-11-15T15:36:48;99290.63;;;-1.87
28803;BMP280;15949;55.656;37.422;2022-11-15T15:41:54;99285.56;;;-1.95
28803;BMP280;15949;55.656;37.422;2022-11-15T15:47:00;99276.22;;;-1.97
28803;BMP280;15949;55.656;37.422;2022-11-15T15:52:05;99264.09;;;-1.89
28803;BMP280;15949;55.656;37.422;2022-11-15T15:57:12;99259.81;;;-1.97
28803;BMP280;15949;55.656;37.422;2022-11-15T16:02:18;99251.09;;;-1.85
28803;BMP280;15949;55.656;37.422;2022-11-15T16:07:23;99255.59;;;-1.86
28803;BMP280;15949;55.656;37.422;2022-11-15T16:12:33;99248.00;;;-1.91
28803;BMP280;15949;55.656;37.422;2022-11-15T16:17:45;99241.13;;;-1.99
28803;BMP280;15949;55.656;37.422;2022-11-15T16:22:52;99227.03;;;-1.94
28803;BMP280;15949;55.656;37.422;2022-11-15T16:27:57;99236.81;;;-1.91
28803;BMP280;15949;55.656;37.422;2022-11-15T16:33:03;99239.44;;;-2.07
28803;BMP280;15949;55.656;37.422;2022-11-15T16:38:17;99222.19;;;-2.28
28803;BMP280;15949;55.656;37.422;2022-11-15T16:43:23;99227.81;;;-2.26
28803;BMP280;15949;55.656;37.422;2022-11-15T16:48:28;99220.16;;;-2.34
28803;BMP280;15949;55.656;37.422;2022-11-15T16:53:34;99220.91;;;-2.34
28803;BMP280;15949;55.656;37.422;2022-11-15T16:58:39;99223.03;;;-2.24
28803;BMP280;15949;55.656;37.422;2022-11-15T17:03:45;99219.16;;;-2.14
28803;BMP280;15949;55.656;37.422;2022-11-15T17:08:51;99224.63;;;-2.19
28803;BMP280;15949;55.656;37.422;2022-11-15T17:13:57;99219.25;;;-2.10
28803;BMP280;15949;55.656;37.422;2022-11-15T17:19:03;99214.00;;;-2.10
28803;BMP280;15949;55.656;37.422;2022-11-15T17:24:10;99214.69;;;-2.13
28803;BMP280;15949;55.656;37.422;2022-11-15T17:29:16;99211.56;;;-2.03
28803;BMP280;15949;55.656;37.422;2022-11-15T17:34:22;99204.84;;;-2.04
28803;BMP280;15949;55.656;37.422;2022-11-15T17:39:28;99193.72;;;-2.01
28803;BMP280;15949;55.656;37.422;2022-11-15T17:44:33;99201.53;;;-2.01
28803;BMP280;15949;55.656;37.422;2022-11-15T17:49:39;99193.81;;;-2.13
28803;BMP280;15949;55.656;37.422;2022-11-15T17:54:45;99195.84;;;-2.23
28803;BMP280;15949;55.656;37.422;2022-11-15T17:59:50;99184.19;;;-2.09
28803;BMP280;15949;55.656;37.422;2022-11-15T18:04:56;99179.25;;;-2.46
28803;BMP280;15949;55.656;37.422;2022-11-15T18:10:02;99181.88;;;-2.46
28803;BMP280;15949;55.656;37.422;2022-11-15T18:15:08;99180.69;;;-2.33
28803;BMP280;15949;55.656;37.422;2022-11-15T18:20:13;99176.06;;;-2.40
28803;BMP280;15949;55.656;37.422;2022-11-15T18:25:20;99171.09;;;-2.29
28803;BMP280;15949;55.656;37.422;2022-11-15T18:30:25;99168.75;;;-2.34
28803;BMP280;15949;55.656;37.422;2022-11-15T18:35:31;99161.00;;;-2.14
28803;BMP280;15949;55.656;37.422;2022-11-15T18:40:37;99159.63;;;-2.08
28803;BMP280;15949;55.656;37.422;2022-11-15T18:45:42;99161.38;;;-1.97
28803;BMP280;15949;55.656;37.422;2022-11-15T18:50:48;99165.00;;;-2.01
28803;BMP280;15949;55.656;37.422;2022-11-15T18:55:53;99161.31;;;-2.00
28803;BMP280;15949;55.656;37.422;2022-11-15T19:06:15;99153.56;;;-2.12
28803;BMP280;15949;55.656;37.422;2022-11-15T19:11:29;99144.72;;;-2.08
28803;BMP280;15949;55.656;37.422;2022-11-15T19:16:37;99141.63;;;-2.13
28803;BMP280;15949;55.656;37.422;2022-11-15T19:21:43;99134.06;;;-2.19
28803;BMP280;15949;55.656;37.422;2022-11-15T19:26:49;99130.75;;;-2.15
28803;BMP280;15949;55.656;37.422;2022-11-15T19:31:54;99131.25;;;-2.10
28803;BMP280;15949;55.656;37.422;2022-11-15T19:37:00;99125.97;;;-2.13
28803;BMP280;15949;55.656;37.422;2022-11-15T19:42:07;99131.19;;;-2.13
28803;BMP280;15949;55.656;37.422;2022-11-15T19:47:13;99123.34;;;-2.13
28803;BMP280;15949;55.656;37.422;2022-11-15T19:52:18;99110.72;;;-2.11
28803;BMP280;15949;55.656;37.422;2022-11-15T19:57:25;99114.78;;;-2.14
28803;BMP280;15949;55.656;37.422;2022-11-15T20:02:30;99113.28;;;-2.15
28803;BMP280;15949;55.656;37.422;2022-11-15T20:07:36;99115.28;;;-2.08
28803;BMP280;15949;55.656;37.422;2022-11-15T20:12:42;99106.47;;;-2.20
28803;BMP280;15949;55.656;37.422;2022-11-15T20:17:47;99099.56;;;-2.28
28803;BMP280;15949;55.656;37.422;2022-11-15T20:22:53;99103.03;;;-2.40
28803;BMP280;15949;55.656;37.422;2022-11-15T20:27:58;99102.13;;;-2.47
28803;BMP280;15949;55.656;37.422;2022-11-15T20:33:04;99100.59;;;-2.48
28803;BMP280;15949;55.656;37.422;2022-11-15T20:38:10;99098.81;;;-2.44
28803;BMP280;15949;55.656;37.422;2022-11-15T20:43:18;99095.56;;;-2.41
28803;BMP280;15949;55.656;37.422;2022-11-15T20:48:23;99095.03;;;-2.31
28803;BMP280;15949;55.656;37.422;2022-11-15T20:53:29;99091.69;;;-2.47
28803;BMP280;15949;55.656;37.422;2022-11-15T20:58:35;99093.47;;;-2.51
28803;BMP280;15949;55.656;37.422;2022-11-15T21:03:41;99088.16;;;-2.39
28803;BMP280;15949;55.656;37.422;2022-11-15T21:08:51;99087.06;;;-2.54
28803;BMP280;15949;55.656;37.422;2022-11-15T21:14:15;99089.09;;;-2.47
28803;BMP280;15949;55.656;37.422;2022-11-15T21:19:21;99083.44;;;-2.49
28803;BMP280;15949;55.656;37.422;2022-11-15T21:24:27;99084.72;;;-2.43
28803;BMP280;15949;55.656;37.422;2022-11-15T21:29:33;99085.63;;;-2.51
28803;BMP280;15949;55.656;37.422;2022-11-15T21:34:42;99089.50;;;-2.45
28803;BMP280;15949;55.656;37.422;2022-11-15T21:39:47;99091.00;;;-2.44
28803;BMP280;15949;55.656;37.422;2022-11-15T21:44:53;99088.16;;;-2.39
28803;BMP280;15949;55.656;37.422;2022-11-15T21:49:58;99089.31;;;-2.36
28803;BMP280;15949;55.656;37.422;2022-11-15T21:55:04;99084.78;;;-2.40
28803;BMP280;15949;55.656;37.422;2022-11-15T22:00:10;99089.94;;;-2.43
28803;BMP280;15949;55.656;37.422;2022-11-15T22:05:34;99082.34;;;-2.48
28803;BMP280;15949;55.656;37.422;2022-11-15T22:10:40;99091.84;;;-2.40
28803;BMP280;15949;55.656;37.422;2022-11-15T22:15:46;99091.66;;;-2.31
28803;BMP280;15949;55.656;37.422;2022-11-15T22:21:12;99084.53;;;-2.34
28803;BMP280;15949;55.656;37.422;2022-11-15T22:26:19;99076.72;;;-2.50
28803;BMP280;15949;55.656;37.422;2022-11-15T22:31:24;99078.59;;;-2.67
28803;BMP280;15949;55.656;37.422;2022-11-15T22:36:30;99085.72;;;-2.48
28803;BMP280;15949;55.656;37.422;2022-11-15T22:41:36;99085.56;;;-2.39
28803;BMP280;15949;55.656;37.422;2022-11-15T22:46:41;99082.69;;;-2.50
28803;BMP280;15949;55.656;37.422;2022-11-15T22:51:48;99089.50;;;-2.45
28803;BMP280;15949;55.656;37.422;2022-11-15T22:56:53;99082.91;;;-2.74
28803;BMP280;15949;55.656;37.422;2022-11-15T23:01:59;99081.19;;;-2.67
28803;BMP280;15949;55.656;37.422;2022-11-15T23:07:05;99070.50;;;-2.62
28803;BMP280;15949;55.656;37.422;2022-11-15T23:12:10;99078.50;;;-2.54
28803;BMP280;15949;55.656;37.422;2022-11-15T23:17:35;99060.22;;;-2.74
28803;BMP280;15949;55.656;37.422;2022-11-15T23:22:40;99060.16;;;-2.58
28803;BMP280;15949;55.656;37.422;2022-11-15T23:27:52;99063.78;;;-2.63
28803;BMP280;15949;55.656;37.422;2022-11-15T23:32:57;99069.84;;;-2.59
28803;BMP280;15949;55.656;37.422;2022-11-15T23:38:21;99068.16;;;-2.67
28803;BMP280;15949;55.656;37.422;2022-11-15T23:43:27;99061.97;;;-2.78
28803;BMP280;15949;55.656;37.422;2022-11-15T23:48:32;99066.25;;;-2.86
28803;BMP280;15949;55.656;37.422;2022-11-15T23:53:38;99068.94;;;-2.98
28803;BMP280;15949;55.656;37.422;2022-11-15T23:58:45;99069.78;;;-2.78
